Jackson Hole (JAC/KJAC)

Map

Information

Location
Jackson Hole, WY
KJAC -
Bad Timezone: GMT-07:00
Local Time
GMT Time
00:07 / 12:07 am
Gates
Unassigned
No FAA reported delays
METAR KJAC 222351Z 26007KT 10SM SCT015 SCT045 05/03 A2989
TAF KJAC 222325Z 2300/2324 17006KT P6SM VCSH SCT028 BKN040 FM230500 36006KT P6SM VCSH SCT030 BKN045 FM231600 36012G18KT P6SM VCSH SCT020 BKN030 AMD LTD TO CLD VIS AND WIND
  • No charts available